createdAt,value
2019-04-25T00:01:08.024Z,34.90
2019-04-25T00:03:36.706Z,35.20
2019-04-25T00:06:02.871Z,35.50
2019-04-25T00:08:28.990Z,35.80
2019-04-25T00:10:55.000Z,35.90
2019-04-25T00:13:21.768Z,36.00
2019-04-25T00:15:48.116Z,36.30
2019-04-25T00:18:14.620Z,36.30
2019-04-25T00:20:43.606Z,36.30
2019-04-25T00:23:15.389Z,36.30
2019-04-25T00:25:45.854Z,36.90
2019-04-25T00:28:11.649Z,36.20
2019-04-25T00:30:38.451Z,36.10
2019-04-25T00:33:04.746Z,36.10
2019-04-25T00:35:31.853Z,36.10
2019-04-25T00:37:57.879Z,36.10
2019-04-25T00:40:23.892Z,35.90
2019-04-25T00:42:50.663Z,35.80
2019-04-25T00:45:17.919Z,35.50
2019-04-25T00:47:44.707Z,35.90
2019-04-25T00:50:12.007Z,36.20
2019-04-25T00:52:38.230Z,36.20
2019-04-25T00:55:04.435Z,36.20
2019-04-25T00:57:31.992Z,37.80
2019-04-25T01:00:01.870Z,41.70
2019-04-25T01:02:38.803Z,43.20
2019-04-25T01:05:06.083Z,47.20
2019-04-25T01:07:34.300Z,49.80
2019-04-25T01:10:00.007Z,48.40
2019-04-25T01:12:26.438Z,48.60
2019-04-25T01:14:53.632Z,50.70
2019-04-25T01:17:21.181Z,57.00
2019-04-25T01:19:47.873Z,54.50
2019-04-25T01:22:14.509Z,58.60
2019-04-25T01:24:40.579Z,61.00
2019-04-25T01:27:07.216Z,61.90
2019-04-25T01:29:33.526Z,61.90
2019-04-25T01:31:59.939Z,62.70
2019-04-25T01:34:27.915Z,63.50
2019-04-25T01:36:58.863Z,62.00
2019-04-25T01:39:36.071Z,61.90
2019-04-25T01:42:07.341Z,58.80
2019-04-25T01:44:35.298Z,60.00
2019-04-25T01:47:01.434Z,58.20
2019-04-25T01:49:29.351Z,58.50
2019-04-25T01:51:57.401Z,57.30
2019-04-25T01:54:23.832Z,57.50
2019-04-25T01:56:50.825Z,57.00
2019-04-25T01:59:17.071Z,55.20
2019-04-25T02:01:44.048Z,55.20
2019-04-25T02:04:10.365Z,54.60
2019-04-25T02:06:36.464Z,54.40
2019-04-25T02:09:06.992Z,55.10
2019-04-25T02:11:52.454Z,55.10
2019-04-25T02:14:20.101Z,55.80
2019-04-25T02:16:46.211Z,55.80
2019-04-25T02:19:12.222Z,55.60
2019-04-25T02:21:38.425Z,56.90
2019-04-25T02:24:05.693Z,57.10
2019-04-25T02:26:31.922Z,57.20
2019-04-25T02:28:58.418Z,57.40
2019-04-25T02:31:24.737Z,57.20
2019-04-25T02:33:50.978Z,56.20
2019-04-25T02:36:17.010Z,55.60
2019-04-25T02:38:44.187Z,55.00
2019-04-25T02:41:10.436Z,55.70
2019-04-25T02:43:37.111Z,54.50
2019-04-25T02:46:08.885Z,55.50
2019-04-25T02:48:46.328Z,55.40
2019-04-25T02:51:17.079Z,54.90
2019-04-25T02:53:47.835Z,55.20
2019-04-25T02:56:29.919Z,55.50
2019-04-25T02:58:44.167Z,55.50
2019-04-25T03:01:21.282Z,54.70
2019-04-25T03:03:41.422Z,54.30
2019-04-25T03:06:09.292Z,54.30
2019-04-25T03:08:35.695Z,54.50
2019-04-25T03:11:04.702Z,53.90
2019-04-25T03:13:30.244Z,53.90
2019-04-25T03:15:56.271Z,53.90
2019-04-25T03:18:24.869Z,54.00
2019-04-25T03:21:03.008Z,53.60
2019-04-25T03:23:31.503Z,53.50
2019-04-25T03:25:59.219Z,53.80
2019-04-25T03:28:25.335Z,54.20
2019-04-25T03:30:54.941Z,54.70
2019-04-25T03:33:20.581Z,54.80
2019-04-25T03:35:46.596Z,55.50
2019-04-25T03:38:13.065Z,55.50
2019-04-25T03:40:40.435Z,55.50
2019-04-25T03:43:07.080Z,55.50
2019-04-25T03:45:33.335Z,55.50
2019-04-25T03:47:59.543Z,54.90
2019-04-25T03:50:25.555Z,54.80
2019-04-25T03:52:51.675Z,55.50
2019-04-25T03:55:17.725Z,54.50
2019-04-25T03:57:45.588Z,54.70
2019-04-25T04:00:14.511Z,55.20
2019-04-25T04:02:40.683Z,55.40
2019-04-25T04:05:07.275Z,56.30
2019-04-25T04:07:35.225Z,55.80
2019-04-25T04:10:03.544Z,55.80
2019-04-25T04:12:29.795Z,55.90
2019-04-25T04:14:56.712Z,56.00
2019-04-25T04:17:27.495Z,56.90
2019-04-25T04:20:01.412Z,56.10
2019-04-25T04:22:29.331Z,56.40
2019-04-25T04:24:57.255Z,56.40
2019-04-25T04:27:23.974Z,56.60
2019-04-25T04:29:50.101Z,56.50
2019-04-25T04:32:17.264Z,56.40
2019-04-25T04:34:45.526Z,56.60
2019-04-25T04:37:11.749Z,56.50
2019-04-25T04:39:38.055Z,55.90
2019-04-25T04:42:04.126Z,55.70
2019-04-25T04:44:30.214Z,55.90
2019-04-25T04:46:56.248Z,55.30
2019-04-25T04:49:23.516Z,55.80
2019-04-25T04:51:50.003Z,55.20
2019-04-25T04:54:17.629Z,55.20
2019-04-25T04:56:44.855Z,55.30
2019-04-25T04:59:14.218Z,54.80
2019-04-25T05:01:58.209Z,54.70
2019-04-25T05:04:28.666Z,54.00
2019-04-25T05:06:59.136Z,54.30
2019-04-25T05:09:26.212Z,53.80
2019-04-25T05:11:53.949Z,54.00
2019-04-25T05:14:20.108Z,54.20
2019-04-25T05:16:49.469Z,54.40
2019-04-25T05:19:15.617Z,54.70
2019-04-25T05:21:43.557Z,54.50
2019-04-25T05:24:10.710Z,54.80
2019-04-25T05:26:36.735Z,54.80
2019-04-25T05:29:03.626Z,54.80
2019-04-25T05:31:34.859Z,54.80
2019-04-25T05:34:00.879Z,54.80
2019-04-25T05:36:28.803Z,54.10
2019-04-25T05:38:54.846Z,54.20
2019-04-25T05:41:31.427Z,54.00
2019-04-25T05:43:57.500Z,54.10
2019-04-25T05:46:25.171Z,53.80
2019-04-25T05:48:51.438Z,52.30
2019-04-25T05:51:17.705Z,51.80
2019-04-25T05:53:43.735Z,51.50
2019-04-25T05:56:09.818Z,51.10
2019-04-25T05:58:36.175Z,50.20
2019-04-25T06:01:03.357Z,50.20
2019-04-25T06:03:29.595Z,50.70
2019-04-25T06:05:55.647Z,50.30
2019-04-25T06:08:25.498Z,50.70
2019-04-25T06:10:55.996Z,50.10
2019-04-25T06:13:29.947Z,49.60
2019-04-25T06:15:57.875Z,50.00
2019-04-25T06:18:26.019Z,49.80
2019-04-25T06:20:54.279Z,48.90
2019-04-25T06:23:24.573Z,49.30
2019-04-25T06:25:50.995Z,48.90
2019-04-25T06:28:19.459Z,48.40
2019-04-25T06:30:46.355Z,48.40
2019-04-25T06:33:13.345Z,48.70
2019-04-25T06:35:39.634Z,48.50
2019-04-25T06:38:05.648Z,47.50
2019-04-25T06:40:32.453Z,47.80
2019-04-25T06:42:59.011Z,46.80
2019-04-25T06:45:38.719Z,46.70
2019-04-25T06:48:07.120Z,45.90
2019-04-25T06:50:34.122Z,46.80
2019-04-25T06:53:01.395Z,45.90
2019-04-25T06:55:28.410Z,45.60
2019-04-25T06:57:54.689Z,45.20
2019-04-25T07:00:22.435Z,45.40
2019-04-25T07:02:49.379Z,45.30
2019-04-25T07:05:26.729Z,44.50
2019-04-25T07:07:45.284Z,44.20
2019-04-25T07:10:13.250Z,44.30
2019-04-25T07:12:39.488Z,44.10
2019-04-25T07:15:08.716Z,43.70
2019-04-25T07:17:35.984Z,43.40
2019-04-25T07:20:04.819Z,42.40
2019-04-25T07:22:30.821Z,42.80
2019-04-25T07:24:56.879Z,42.20
2019-04-25T07:27:28.343Z,41.60
2019-04-25T07:29:56.474Z,41.10
2019-04-25T07:32:31.197Z,41.70
2019-04-25T07:34:57.381Z,41.80
2019-04-25T07:37:24.228Z,41.70
2019-04-25T07:39:50.407Z,41.20
2019-04-25T07:42:16.431Z,40.60
2019-04-25T07:44:52.051Z,40.80
2019-04-25T07:47:10.407Z,40.70
2019-04-25T07:49:36.441Z,40.70
2019-04-25T07:52:03.601Z,40.40
2019-04-25T07:54:30.670Z,40.10
2019-04-25T07:56:56.937Z,39.60
2019-04-25T07:59:23.747Z,39.50
2019-04-25T08:01:50.291Z,39.30
2019-04-25T08:04:16.852Z,39.10
2019-04-25T08:06:44.302Z,39.00
2019-04-25T08:09:11.306Z,38.70
2019-04-25T08:11:38.218Z,36.90
2019-04-25T08:14:06.426Z,36.90
2019-04-25T08:16:37.261Z,35.50
2019-04-25T08:19:14.273Z,34.90
2019-04-25T08:21:40.350Z,34.20
2019-04-25T08:24:06.390Z,34.90
2019-04-25T08:26:34.812Z,33.10
2019-04-25T08:29:03.768Z,33.00
2019-04-25T08:31:34.759Z,33.20
2019-04-25T08:34:00.436Z,32.60
2019-04-25T08:36:36.673Z,32.40
2019-04-25T08:39:06.312Z,32.50
2019-04-25T08:41:31.098Z,31.60
2019-04-25T08:43:59.718Z,31.20
2019-04-25T08:46:37.203Z,31.90
2019-04-25T08:49:06.528Z,32.40
2019-04-25T08:51:44.938Z,31.20
2019-04-25T08:54:20.354Z,29.70
2019-04-25T08:56:56.698Z,29.30
2019-04-25T08:59:45.618Z,29.70
2019-04-25T09:02:32.594Z,28.90
2019-04-25T09:05:24.042Z,28.90
2019-04-25T09:07:50.619Z,29.00
2019-04-25T09:10:16.642Z,28.40
2019-04-25T09:12:44.242Z,28.00
2019-04-25T09:15:14.087Z,27.70
2019-04-25T09:17:40.213Z,27.90
2019-04-25T09:20:06.285Z,27.90
2019-04-25T09:22:35.269Z,28.00
2019-04-25T09:25:01.099Z,28.20
2019-04-25T09:27:27.467Z,27.80
2019-04-25T09:29:54.198Z,28.00
2019-04-25T09:32:20.634Z,28.20
2019-04-25T09:34:48.055Z,28.60
2019-04-25T09:37:17.605Z,27.60
2019-04-25T09:39:51.799Z,27.30
2019-04-25T09:42:17.819Z,27.40
2019-04-25T09:44:54.411Z,27.60
2019-04-25T09:47:20.428Z,27.20
2019-04-25T09:49:48.117Z,26.60
2019-04-25T09:52:16.654Z,26.70
2019-04-25T09:54:47.345Z,26.60
2019-04-25T09:57:33.452Z,26.10
2019-04-25T10:00:01.187Z,26.50
2019-04-25T10:02:27.243Z,26.00
2019-04-25T10:04:55.190Z,25.90
2019-04-25T10:07:25.278Z,26.20
2019-04-25T10:09:51.367Z,25.80
2019-04-25T10:12:17.610Z,25.70
2019-04-25T10:14:50.300Z,25.30
2019-04-25T10:17:16.617Z,25.10
2019-04-25T10:19:43.505Z,25.50
2019-04-25T10:22:09.686Z,24.90
2019-04-25T10:24:35.696Z,23.90
2019-04-25T10:27:04.505Z,24.40
2019-04-25T10:29:41.209Z,23.90
2019-04-25T10:31:58.451Z,24.30
2019-04-25T10:34:24.572Z,24.10
2019-04-25T10:36:50.681Z,23.00
2019-04-25T10:39:16.820Z,23.30
2019-04-25T10:41:46.109Z,22.90
2019-04-25T10:44:25.368Z,23.00
2019-04-25T10:46:51.435Z,22.70
2019-04-25T10:49:18.463Z,23.40
2019-04-25T10:51:45.693Z,22.70
2019-04-25T10:54:14.414Z,21.80
2019-04-25T10:56:41.713Z,21.60
2019-04-25T10:59:07.799Z,20.60
2019-04-25T11:01:33.986Z,19.80
2019-04-25T11:04:01.993Z,17.80
2019-04-25T11:06:28.005Z,14.50
2019-04-25T11:08:56.457Z,13.10
2019-04-25T11:11:24.122Z,11.70
2019-04-25T11:13:50.356Z,11.00
2019-04-25T11:16:16.492Z,11.20
2019-04-25T11:18:44.177Z,11.80
2019-04-25T11:21:13.816Z,11.60
2019-04-25T11:23:40.524Z,12.70
2019-04-25T11:26:07.476Z,13.20
2019-04-25T11:28:33.883Z,14.80
2019-04-25T11:31:02.048Z,14.90
2019-04-25T11:33:28.416Z,15.30
2019-04-25T11:35:56.321Z,15.80
2019-04-25T11:38:42.670Z,16.60
2019-04-25T11:41:11.417Z,17.20
2019-04-25T11:43:37.454Z,17.00
2019-04-25T11:46:04.885Z,17.30
2019-04-25T11:48:31.389Z,17.70
2019-04-25T11:50:57.410Z,17.60
2019-04-25T11:53:24.963Z,17.90
2019-04-25T11:55:51.460Z,18.00
2019-04-25T11:58:18.199Z,17.80
2019-04-25T12:00:45.115Z,17.90
2019-04-25T12:03:12.136Z,18.00
2019-04-25T12:05:38.194Z,17.40
2019-04-25T12:08:04.738Z,17.50
2019-04-25T12:10:31.823Z,17.40
2019-04-25T12:12:57.929Z,17.00
2019-04-25T12:15:24.731Z,16.70
2019-04-25T12:17:51.606Z,16.40
2019-04-25T12:20:17.685Z,16.30
2019-04-25T12:22:45.392Z,15.60
2019-04-25T12:25:13.621Z,14.60
2019-04-25T12:27:39.982Z,14.70
2019-04-25T12:30:06.262Z,15.80
2019-04-25T12:32:35.067Z,15.60
2019-04-25T12:35:00.178Z,16.30
2019-04-25T12:37:26.291Z,16.70
2019-04-25T12:39:52.320Z,16.20
2019-04-25T12:42:18.341Z,16.10
2019-04-25T12:47:24.009Z,14.20
2019-04-25T12:49:50.651Z,13.20
2019-04-25T12:52:16.835Z,12.20
2019-04-25T12:54:44.069Z,11.30
2019-04-25T12:57:14.067Z,10.80
2019-04-25T12:59:40.275Z,9.70
2019-04-25T13:02:06.297Z,7.90
2019-04-25T13:04:33.193Z,7.60
2019-04-25T13:07:00.311Z,7.00
2019-04-25T13:09:28.356Z,6.80
2019-04-25T13:11:55.308Z,7.20
2019-04-25T13:14:21.327Z,6.90
2019-04-25T13:16:47.477Z,7.30
2019-04-25T13:19:21.774Z,6.50
2019-04-25T13:21:43.194Z,7.60
2019-04-25T13:24:10.454Z,6.10
2019-04-25T13:26:38.516Z,6.00
2019-04-25T13:29:24.723Z,6.80
2019-04-25T13:31:53.166Z,7.90
2019-04-25T13:34:22.381Z,8.60
2019-04-25T13:36:49.160Z,9.10
2019-04-25T13:39:16.819Z,9.20
2019-04-25T13:41:43.075Z,9.70
2019-04-25T13:44:10.655Z,9.90
2019-04-25T13:46:37.192Z,10.90
2019-04-25T13:49:04.253Z,10.40
2019-04-25T13:51:30.816Z,9.40
2019-04-25T13:53:57.616Z,9.10
2019-04-25T13:56:25.883Z,8.80
2019-04-25T13:58:51.639Z,8.30
2019-04-25T14:01:18.355Z,8.30
2019-04-25T14:03:44.473Z,9.20
2019-04-25T14:06:10.615Z,9.90
2019-04-25T14:08:36.670Z,10.20
2019-04-25T14:11:04.942Z,10.40
2019-04-25T14:13:32.201Z,10.60
2019-04-25T14:16:00.809Z,10.40
2019-04-25T14:18:34.651Z,10.40
2019-04-25T14:21:03.492Z,8.50
2019-04-25T14:23:29.631Z,7.80
2019-04-25T14:25:55.695Z,6.40
2019-04-25T14:28:21.946Z,5.30
2019-04-25T14:30:48.245Z,3.50
2019-04-25T14:33:14.259Z,3.70
2019-04-25T14:35:40.269Z,3.50
2019-04-25T14:38:07.029Z,3.80
2019-04-25T14:40:33.278Z,4.50
2019-04-25T14:42:59.464Z,4.40
2019-04-25T14:45:26.450Z,4.60
2019-04-25T14:47:52.864Z,4.20
2019-04-25T14:50:18.875Z,3.70
2019-04-25T14:52:45.080Z,3.20
2019-04-25T14:55:23.558Z,3.40
2019-04-25T14:57:49.811Z,3.40
2019-04-25T15:00:23.988Z,2.90
2019-04-25T15:02:50.184Z,2.70
2019-04-25T15:05:16.276Z,2.60
2019-04-25T15:07:43.008Z,2.50
2019-04-25T15:10:09.279Z,2.10
2019-04-25T15:12:35.411Z,1.80
2019-04-25T15:15:07.516Z,1.60
2019-04-25T15:17:43.849Z,1.90
2019-04-25T15:20:03.882Z,2.30
2019-04-25T15:22:30.542Z,2.40
2019-04-25T15:24:58.673Z,2.30
2019-04-25T15:27:25.114Z,2.30
2019-04-25T15:29:59.301Z,2.00
2019-04-25T15:32:27.486Z,2.00
2019-04-25T15:34:55.596Z,1.70
2019-04-25T15:37:23.672Z,1.90
2019-04-25T15:39:59.876Z,2.20
2019-04-25T15:42:45.727Z,1.80
2019-04-25T15:45:13.679Z,2.40
2019-04-25T15:47:39.739Z,2.80
2019-04-25T15:50:06.064Z,2.90
2019-04-25T15:52:32.112Z,2.70
2019-04-25T15:55:06.884Z,2.90
2019-04-25T15:57:26.028Z,2.90
2019-04-25T15:59:52.196Z,2.90
2019-04-25T16:02:18.618Z,2.60
2019-04-25T16:04:46.597Z,2.70
2019-04-25T16:07:13.356Z,2.70
2019-04-25T16:09:39.367Z,2.40
2019-04-25T16:12:06.579Z,2.60
2019-04-25T16:14:33.387Z,2.60
2019-04-25T16:17:00.038Z,3.00
2019-04-25T16:19:26.051Z,2.80
2019-04-25T16:21:52.248Z,3.80
2019-04-25T16:24:18.275Z,4.80
2019-04-25T16:26:47.824Z,5.50
2019-04-25T16:29:13.873Z,6.30
2019-04-25T16:31:39.905Z,7.20
2019-04-25T16:34:05.923Z,7.50
2019-04-25T16:36:32.496Z,8.10
2019-04-25T16:38:58.613Z,8.90
2019-04-25T16:41:24.627Z,9.30
2019-04-25T16:43:52.975Z,9.90
2019-04-25T16:46:20.497Z,10.30
2019-04-25T16:48:46.623Z,11.00
2019-04-25T16:51:13.059Z,11.80
2019-04-25T16:53:42.274Z,12.70
2019-04-25T16:56:08.846Z,12.50
2019-04-25T16:58:34.900Z,13.70
2019-04-25T17:01:02.811Z,13.30
2019-04-25T17:03:30.107Z,13.60
2019-04-25T17:05:58.331Z,14.00
2019-04-25T17:08:24.347Z,14.10
2019-04-25T17:10:50.359Z,14.30
2019-04-25T17:13:16.665Z,14.20
2019-04-25T17:16:02.997Z,14.10
2019-04-25T17:18:31.925Z,14.90
2019-04-25T17:20:59.969Z,14.80
2019-04-25T17:23:26.012Z,15.20
2019-04-25T17:25:52.056Z,15.30
2019-04-25T17:28:18.443Z,15.70
2019-04-25T17:30:46.355Z,15.80
2019-04-25T17:33:17.128Z,15.90
2019-04-25T17:36:00.214Z,15.90
2019-04-25T17:38:44.703Z,16.20
2019-04-25T17:41:10.728Z,16.40
2019-04-25T17:43:36.739Z,16.50
2019-04-25T17:46:04.334Z,16.40
2019-04-25T17:48:30.452Z,16.70
2019-04-25T17:50:56.467Z,16.80
2019-04-25T17:53:22.595Z,16.80
2019-04-25T17:55:48.604Z,17.00
2019-04-25T17:58:14.623Z,17.60
2019-04-25T18:00:44.968Z,17.60
2019-04-25T18:03:11.423Z,17.60
2019-04-25T18:05:49.590Z,17.90
2019-04-25T18:08:15.592Z,17.70
2019-04-25T18:10:41.998Z,17.70
2019-04-25T18:13:09.550Z,17.80
2019-04-25T18:15:50.299Z,18.00
2019-04-25T18:18:18.420Z,18.20
2019-04-25T18:20:48.302Z,18.20
2019-04-25T18:23:24.832Z,18.50
2019-04-25T18:26:01.627Z,18.40
2019-04-25T18:28:32.391Z,18.40
2019-04-25T18:30:59.107Z,18.90
2019-04-25T18:33:32.816Z,19.60
2019-04-25T18:36:14.179Z,19.60
2019-04-25T18:38:44.629Z,19.60
2019-04-25T18:41:32.358Z,19.40
2019-04-25T18:44:00.273Z,19.90
2019-04-25T18:46:28.207Z,19.40
2019-04-25T18:48:54.274Z,19.40
2019-04-25T18:51:22.239Z,19.50
2019-04-25T18:53:52.649Z,19.60
2019-04-25T18:56:43.831Z,19.70
2019-04-25T18:59:19.603Z,19.90
2019-04-25T19:02:06.804Z,20.60
2019-04-25T19:04:42.949Z,20.80
2019-04-25T19:07:22.424Z,20.60
2019-04-25T19:09:54.646Z,21.00
2019-04-25T19:12:29.116Z,21.20
2019-04-25T19:14:55.407Z,21.60
2019-04-25T19:17:23.440Z,22.00
2019-04-25T19:19:49.555Z,21.90
2019-04-25T19:22:16.286Z,22.10
2019-04-25T19:24:44.976Z,22.00
2019-04-25T19:27:10.316Z,22.40
2019-04-25T19:29:36.359Z,22.30
2019-04-25T19:32:02.490Z,22.60
2019-04-25T19:34:28.707Z,22.70
2019-04-25T19:36:54.732Z,22.90
2019-04-25T19:39:22.638Z,22.90
2019-04-25T19:42:07.511Z,22.90
2019-04-25T19:44:33.545Z,23.10
2019-04-25T19:46:59.586Z,23.20
2019-04-25T19:49:25.598Z,23.20
2019-04-25T19:51:54.224Z,23.30
2019-04-25T19:54:31.926Z,23.80
2019-04-25T19:57:10.068Z,24.00
2019-04-25T19:59:36.155Z,23.30
2019-04-25T20:02:04.460Z,23.60
2019-04-25T20:04:35.159Z,23.50
2019-04-25T20:07:09.010Z,23.90
2019-04-25T20:09:55.879Z,24.00
2019-04-25T20:12:33.379Z,24.30
2019-04-25T20:14:59.412Z,24.30
2019-04-25T20:17:25.443Z,24.30
2019-04-25T20:19:51.864Z,24.30
2019-04-25T20:22:18.055Z,24.70
2019-04-25T20:24:45.334Z,24.50
2019-04-25T20:27:12.260Z,24.70
2019-04-25T20:29:38.303Z,25.30
2019-04-25T20:32:07.310Z,25.10
2019-04-25T20:34:33.604Z,24.70
2019-04-25T20:36:59.622Z,24.60
2019-04-25T20:39:27.757Z,25.00
2019-04-25T20:41:53.961Z,25.20
2019-04-25T20:44:20.025Z,24.90
2019-04-25T20:46:46.740Z,24.90
2019-04-25T20:49:12.945Z,24.70
2019-04-25T20:51:39.294Z,25.10
2019-04-25T20:54:05.319Z,25.30
2019-04-25T20:56:31.471Z,24.60
2019-04-25T20:58:57.710Z,24.60
2019-04-25T21:01:23.808Z,24.40
2019-04-25T21:03:49.898Z,24.50
2019-04-25T21:06:17.904Z,24.70
2019-04-25T21:08:49.018Z,24.70
2019-04-25T21:11:16.180Z,24.90
2019-04-25T21:13:44.948Z,24.60
2019-04-25T21:16:31.924Z,24.30
2019-04-25T21:19:02.035Z,24.40
2019-04-25T21:21:27.863Z,24.60
2019-04-25T21:23:54.883Z,24.20
2019-04-25T21:26:22.931Z,24.50
2019-04-25T21:28:50.179Z,24.50
2019-04-25T21:31:17.159Z,24.30
2019-04-25T21:33:43.294Z,24.40
2019-04-25T21:36:09.518Z,24.60
2019-04-25T21:38:35.959Z,24.80
2019-04-25T21:41:09.939Z,25.20
2019-04-25T21:43:38.291Z,25.60
2019-04-25T21:46:04.614Z,24.80
2019-04-25T21:48:31.475Z,24.90
2019-04-25T21:51:01.002Z,24.70
2019-04-25T21:53:27.199Z,24.80
2019-04-25T21:55:53.416Z,24.40
2019-04-25T21:58:20.743Z,24.50
2019-04-25T22:00:49.887Z,24.30
2019-04-25T22:03:18.007Z,24.20
2019-04-25T22:05:44.727Z,24.40
2019-04-25T22:08:11.129Z,24.50
2019-04-25T22:10:37.651Z,24.70
2019-04-25T22:13:11.963Z,24.50
2019-04-25T22:15:31.875Z,24.50
2019-04-25T22:17:58.193Z,25.20
2019-04-25T22:20:24.381Z,24.80
2019-04-25T22:22:50.428Z,24.70
2019-04-25T22:25:16.456Z,24.80
2019-04-25T22:27:44.129Z,24.70
2019-04-25T22:30:12.547Z,24.70
2019-04-25T22:32:40.788Z,24.90
2019-04-25T22:35:08.830Z,25.10
2019-04-25T22:37:35.114Z,25.10
2019-04-25T22:40:01.419Z,25.00
2019-04-25T22:42:28.375Z,25.50
2019-04-25T22:44:54.380Z,25.00
2019-04-25T22:47:20.703Z,25.20
2019-04-25T22:49:46.731Z,25.30
2019-04-25T22:52:13.211Z,25.20
2019-04-25T22:54:39.690Z,25.10
2019-04-25T22:57:06.383Z,25.50
2019-04-25T22:59:32.811Z,25.30
2019-04-25T23:02:16.042Z,25.00
2019-04-25T23:04:49.860Z,25.00
2019-04-25T23:07:16.975Z,25.10
2019-04-25T23:09:43.299Z,25.40
2019-04-25T23:12:10.591Z,25.60
2019-04-25T23:14:37.179Z,25.40
2019-04-25T23:17:03.717Z,25.40
2019-04-25T23:19:30.223Z,25.40
2019-04-25T23:21:56.236Z,25.30
2019-04-25T23:24:24.184Z,25.40
2019-04-25T23:26:53.744Z,25.40
2019-04-25T23:29:20.460Z,25.50
2019-04-25T23:31:46.515Z,25.30
2019-04-25T23:34:12.874Z,25.40
2019-04-25T23:36:38.931Z,25.60
2019-04-25T23:39:07.254Z,25.30
2019-04-25T23:41:33.644Z,25.80
2019-04-25T23:44:00.528Z,25.60
2019-04-25T23:46:27.056Z,25.90
2019-04-25T23:48:53.105Z,26.00
2019-04-25T23:51:19.118Z,25.80
2019-04-25T23:53:45.659Z,25.80
2019-04-25T23:56:11.681Z,25.80
2019-04-25T23:58:38.000Z,25.90
